Time;durP1;ratioP1;P1;durP2;ratioP2;P2;SDS_P1;SDS_P2;PMS_P1;PMS_P2;Temp;Humidity;BMP_temperature;BMP_pressure;BME280_temperature;BME280_humidity;BME280_pressure;Samples;Min_cycle;Max_cycle;Signal;HPM_P1;HPM_P2
2022/08/15 00:00:33;;;;;;;12.23;11.13;;;21.90;99.90;;;-141.84;56.49;21574.25;5031310;28;20221;-63
2022/08/15 00:03:03;;;;;;;12.65;11.38;;;21.90;99.90;;;-141.84;56.29;21606.78;5030649;28;20264;-64
2022/08/15 00:05:41;;;;;;;11.95;10.95;;;21.80;99.90;;;-141.84;56.42;21574.25;5029997;28;20233;-64
2022/08/15 00:08:11;;;;;;;11.70;10.70;;;21.80;99.90;;;-141.84;56.35;21606.78;5030597;28;20307;-63
2022/08/15 00:11:05;;;;;;;12.20;10.90;;;21.80;99.90;;;-141.84;56.70;21604.75;5030755;28;20230;-65
2022/08/15 00:13:57;;;;;;;11.82;10.73;;;21.80;99.90;;;-141.84;56.87;21572.22;5030749;28;20233;-64
2022/08/15 00:16:29;;;;;;;12.27;11.25;;;21.80;99.90;;;-141.84;57.09;21574.25;5030566;28;20237;-63
2022/08/15 00:19:01;;;;;;;11.60;10.60;;;21.70;99.90;;;-141.84;57.37;21539.69;5030385;28;20205;-65
2022/08/15 00:21:29;;;;;;;10.95;10.13;;;21.70;99.90;;;-141.84;57.73;21492.94;5030935;28;20202;-65
2022/08/15 00:23:58;;;;;;;12.25;11.25;;;21.70;99.90;;;-141.84;57.58;21525.47;5030418;28;20226;-64
2022/08/15 00:26:26;;;;;;;11.40;10.50;;;21.60;99.90;;;-141.84;57.83;21553.94;5030337;28;20283;-63
2022/08/15 00:29:17;;;;;;;12.30;11.30;;;21.60;99.90;;;-141.84;57.64;21555.97;5030420;28;20221;-65
2022/08/15 00:32:08;;;;;;;11.80;10.70;;;21.50;99.90;;;-141.84;57.67;21529.53;5030387;28;20634;-64
2022/08/15 00:34:56;;;;;;;13.18;11.88;;;21.50;99.90;;;-141.84;57.12;21541.72;5029681;28;20229;-64
2022/08/15 00:37:24;;;;;;;13.10;11.90;;;21.60;99.90;;;-141.84;57.26;21551.91;5030364;28;20261;-64
2022/08/15 00:39:53;;;;;;;12.77;11.60;;;21.60;99.90;;;-141.84;57.80;21499.03;5030210;28;20293;-65
2022/08/15 00:42:23;;;;;;;12.85;11.75;;;21.60;99.90;;;-141.84;57.69;21503.09;5030564;28;20714;-64
2022/08/15 00:44:58;;;;;;;12.00;11.00;;;21.50;99.90;;;-141.84;57.87;21539.69;5030082;28;20635;-64
2022/08/15 00:47:42;;;;;;;13.57;12.38;;;21.50;99.90;;;-141.84;57.61;21521.41;5030144;28;20384;-64
2022/08/15 00:50:15;;;;;;;13.20;12.07;;;21.50;99.90;;;-141.84;57.37;21547.81;5029600;28;20265;-64
2022/08/15 00:53:08;;;;;;;13.80;12.60;;;21.50;99.90;;;-141.84;57.97;21507.16;5029961;28;20241;-64
2022/08/15 00:55:43;;;;;;;12.50;11.40;;;21.40;99.90;;;-141.84;58.23;21484.78;5029905;28;20226;-64
2022/08/15 00:58:17;;;;;;;13.25;11.95;;;21.30;99.90;;;-141.84;58.43;21488.88;5030120;28;20228;-64
2022/08/15 01:01:06;;;;;;;14.07;12.85;;;21.30;99.90;;;-141.84;58.66;21436.00;5030014;28;20233;-66
2022/08/15 01:03:40;;;;;;;12.55;11.45;;;21.30;99.90;;;-141.84;59.26;21482.75;5030591;28;20213;-64
2022/08/15 01:06:24;;;;;;;13.15;11.75;;;21.20;99.90;;;-141.84;59.16;21436.00;5028293;28;20222;-64
2022/08/15 01:09:01;;;;;;;11.82;10.82;;;21.10;99.90;;;-141.84;59.60;21446.16;5030041;28;20236;-64
2022/08/15 01:11:41;;;;;;;13.13;11.75;;;21.10;99.90;;;-141.84;59.79;21383.13;5029689;28;20237;-64
2022/08/15 01:14:10;;;;;;;12.63;11.50;;;21.00;99.90;;;-141.84;59.56;21395.34;5029787;28;20697;-64
2022/08/15 01:17:01;;;;;;;12.45;11.35;;;21.00;99.90;;;-141.84;60.09;21348.56;5030617;28;20226;-65
2022/08/15 01:19:33;;;;;;;12.48;11.48;;;21.00;99.90;;;-141.84;60.18;21377.03;5033266;28;20221;-64
2022/08/15 01:22:50;;;;;;;13.35;12.05;;;21.00;99.90;;;-141.84;60.00;21389.22;5033485;28;20760;-66
2022/08/15 01:25:29;;;;;;;13.38;12.18;;;21.00;99.90;;;-141.84;59.84;21431.94;5031207;28;20651;-63
2022/08/15 01:28:23;;;;;;;13.45;12.25;;;21.00;99.90;;;-141.84;59.43;21393.31;5033783;28;20222;-63
2022/08/15 01:31:03;;;;;;;13.25;12.05;;;21.00;99.90;;;-141.84;60.43;21368.91;5033500;28;20213;-63
2022/08/15 01:33:36;;;;;;;14.20;12.98;;;20.90;99.90;;;-141.84;60.18;21417.69;5034036;28;20220;-63
2022/08/15 01:36:08;;;;;;;13.50;12.20;;;20.90;99.90;;;-141.84;60.28;21393.31;5033212;28;20244;-63
2022/08/15 01:39:06;;;;;;;13.10;11.93;;;20.90;99.90;;;-141.84;60.66;21379.06;5033206;28;20229;-64
2022/08/15 01:41:49;;;;;;;14.10;12.90;;;20.90;99.90;;;-141.84;60.71;21423.81;5033145;28;20603;-64
2022/08/15 01:44:31;;;;;;;13.35;12.20;;;20.80;99.90;;;-141.84;60.63;21383.13;5033173;28;20728;-63
2022/08/15 01:47:18;;;;;;;12.88;11.68;;;20.80;99.90;;;-141.84;61.31;21318.06;5033111;28;20221;-64
2022/08/15 01:49:55;;;;;;;13.30;12.20;;;20.80;99.90;;;-141.84;61.31;21344.50;5032795;28;20685;-66
2022/08/15 01:52:37;;;;;;;13.07;11.98;;;20.70;99.90;;;-141.84;61.33;21352.63;5033250;28;20222;-62
2022/08/15 01:55:33;;;;;;;13.05;11.85;;;20.70;99.90;;;-141.84;61.22;21383.13;5032751;28;20690;-64
2022/08/15 01:58:13;;;;;;;12.70;11.60;;;20.70;99.90;;;-141.84;61.55;21324.19;5032919;28;20221;-65
2022/08/15 02:00:52;;;;;;;13.18;11.98;;;20.70;99.90;;;-141.84;61.51;21318.06;5033146;28;20617;-64
2022/08/15 02:03:33;;;;;;;13.23;11.82;;;20.60;99.90;;;-141.84;61.66;21328.25;5033101;28;20202;-66
2022/08/15 02:06:22;;;;;;;13.77;12.57;;;20.60;99.90;;;-141.84;61.67;21328.25;5033177;28;20221;-64
2022/08/15 02:09:02;;;;;;;13.63;12.30;;;20.60;99.90;;;-141.84;61.63;21334.34;5032770;28;20602;-65
2022/08/15 02:11:46;;;;;;;13.35;12.05;;;20.60;99.90;;;-141.84;61.79;21322.13;5033005;28;20260;-64
2022/08/15 02:14:33;;;;;;;13.55;12.35;;;20.60;99.90;;;-141.84;62.00;21330.28;5032836;28;20232;-65
2022/08/15 02:17:08;;;;;;;13.18;11.85;;;20.60;99.90;;;-141.84;62.26;21354.66;5032835;28;20229;-63
2022/08/15 02:19:39;;;;;;;13.27;12.07;;;20.50;99.90;;;-141.84;61.79;21293.69;5032169;28;20225;-63
2022/08/15 02:22:14;;;;;;;12.35;11.25;;;20.50;99.90;;;-141.84;61.92;21283.50;5032732;28;20593;-65
2022/08/15 02:24:54;;;;;;;13.35;12.25;;;20.50;99.90;;;-141.84;62.19;21281.47;5032619;28;20190;-63
2022/08/15 02:27:24;;;;;;;13.00;11.80;;;20.50;99.90;;;-141.84;62.58;21283.50;5032632;28;20570;-63
2022/08/15 02:29:54;;;;;;;13.38;12.18;;;20.40;99.90;;;-141.84;62.49;21307.91;5032336;28;20247;-64
2022/08/15 02:32:25;;;;;;;13.38;12.13;;;20.40;99.90;;;-141.84;61.75;21305.88;5032263;28;20230;-62
2022/08/15 02:35:00;;;;;;;13.57;11.93;;;20.50;99.90;;;-141.84;61.84;21305.88;5032077;28;20230;-65
2022/08/15 02:37:31;;;;;;;13.35;12.07;;;20.50;99.90;;;-141.84;61.64;21322.13;5032357;28;20227;-64
2022/08/15 02:40:10;;;;;;;12.40;11.40;;;20.60;99.90;;;-141.84;61.85;21309.94;5032266;28;20693;-64
2022/08/15 02:43:03;;;;;;;15.05;12.48;;;20.60;99.90;;;-141.84;61.45;21326.22;5032221;28;20206;-63
2022/08/15 02:45:37;;;;;;;12.60;11.57;;;20.60;99.90;;;-141.84;61.30;21314.00;5032541;28;20186;-64
2022/08/15 02:48:24;;;;;;;12.98;11.68;;;20.60;99.90;;;-141.84;61.53;21332.31;5031999;28;20607;-63
2022/08/15 02:50:56;;;;;;;12.63;11.40;;;20.70;99.90;;;-141.84;61.40;21356.69;5031765;28;20283;-63
2022/08/15 02:53:24;;;;;;;13.20;11.98;;;20.70;99.90;;;-141.84;61.54;21314.00;5031833;28;20232;-64
2022/08/15 02:55:54;;;;;;;13.10;12.00;;;20.70;99.90;;;-141.84;61.99;21299.78;5031867;28;20272;-64
2022/08/15 02:58:22;;;;;;;13.05;11.82;;;20.60;99.90;;;-141.84;62.28;21261.16;5031792;28;20290;-63
2022/08/15 03:01:00;;;;;;;13.73;12.32;;;20.50;99.90;;;-141.84;62.49;21289.59;5031791;28;20732;-64
2022/08/15 03:03:48;;;;;;;12.48;11.38;;;20.50;99.90;;;-141.84;62.51;21236.75;5031318;28;20579;-64
2022/08/15 03:06:24;;;;;;;11.98;10.88;;;20.40;99.90;;;-141.84;62.97;21194.06;5031956;28;20192;-63
2022/08/15 03:09:02;;;;;;;13.02;11.82;;;20.40;99.90;;;-141.84;63.18;21246.91;5031543;28;20799;-63
2022/08/15 03:11:33;;;;;;;12.05;10.95;;;20.30;99.90;;;-141.84;63.27;21208.28;5031584;28;20651;-64
2022/08/15 03:14:23;;;;;;;12.20;11.20;;;20.30;99.90;;;-141.84;63.65;21202.19;5031524;28;20230;-64
2022/08/15 03:17:04;;;;;;;12.93;11.48;;;20.30;99.90;;;-141.84;63.68;21240.81;5031757;28;20303;-64
2022/08/15 03:19:37;;;;;;;12.70;11.60;;;20.20;99.90;;;-141.84;63.05;21240.81;5030963;28;20246;-63
2022/08/15 03:22:08;;;;;;;13.60;12.38;;;20.20;99.90;;;-141.84;63.29;21277.41;5031503;28;20271;-64
2022/08/15 03:24:36;;;;;;;12.80;11.60;;;20.30;99.90;;;-141.84;63.29;21202.19;5031818;28;20224;-63
2022/08/15 03:27:05;;;;;;;12.85;11.75;;;20.30;99.90;;;-141.84;63.27;21196.09;5031092;28;20226;-63
2022/08/15 03:29:35;;;;;;;13.45;12.25;;;20.30;99.90;;;-141.84;62.90;21273.34;5031435;28;20236;-63
2022/08/15 03:32:20;;;;;;;14.27;11.75;;;20.30;99.90;;;-141.84;62.64;21259.13;5031459;28;20337;-62
2022/08/15 03:35:10;;;;;;;13.00;11.90;;;20.40;99.90;;;-141.84;62.47;21269.28;5030847;28;20236;-63
2022/08/15 03:37:39;;;;;;;13.02;11.93;;;20.40;99.90;;;-141.84;62.58;21289.59;5031011;28;20307;-64
2022/08/15 03:40:13;;;;;;;12.05;11.05;;;20.50;99.90;;;-141.84;62.50;21301.81;5030350;28;20233;-62
2022/08/15 03:42:53;;;;;;;13.13;11.90;;;20.50;99.90;;;-141.84;62.77;21301.81;5031142;28;20194;-65
2022/08/15 03:45:32;;;;;;;12.43;11.43;;;20.50;99.90;;;-141.84;61.98;21297.75;5031402;28;20665;-65
2022/08/15 03:48:05;;;;;;;13.57;12.38;;;20.60;99.90;;;-141.84;61.74;21301.81;5030777;28;20237;-63
2022/08/15 03:50:33;;;;;;;13.23;11.93;;;20.60;99.90;;;-141.84;61.67;21354.66;5030570;28;20234;-64
2022/08/15 03:53:10;;;;;;;14.00;12.68;;;20.60;99.90;;;-141.84;61.20;21332.31;5030837;28;20233;-65
2022/08/15 03:55:43;;;;;;;14.80;13.40;;;20.70;99.90;;;-141.84;61.47;21338.41;5030601;28;20254;-64
2022/08/15 03:58:21;;;;;;;13.98;12.60;;;20.70;99.90;;;-141.84;61.10;21332.31;5030663;28;20222;-63
2022/08/15 04:01:06;;;;;;;13.90;12.50;;;20.70;99.90;;;-141.84;61.31;21297.75;5030821;28;20975;-64
2022/08/15 04:03:36;;;;;;;13.25;12.00;;;20.80;99.90;;;-141.84;61.35;21332.31;5031089;28;20202;-65
2022/08/15 04:06:10;;;;;;;12.55;11.35;;;20.80;99.90;;;-141.84;61.53;21342.47;5030395;28;20663;-63
2022/08/15 04:08:42;;;;;;;13.30;12.00;;;20.70;99.90;;;-141.84;61.75;21322.13;5030355;28;20267;-64
2022/08/15 04:11:31;;;;;;;13.13;11.82;;;20.70;99.90;;;-141.84;61.67;21340.44;5030623;28;20230;-63
2022/08/15 04:14:06;;;;;;;12.95;11.80;;;20.80;99.90;;;-141.84;61.05;21356.69;5030367;28;20317;-64
2022/08/15 04:16:56;;;;;;;13.20;12.10;;;20.80;99.90;;;-141.84;61.69;21326.22;5030325;28;20234;-64
2022/08/15 04:19:34;;;;;;;14.55;13.15;;;20.80;99.90;;;-141.84;61.18;21358.75;5029892;28;20222;-65
2022/08/15 04:22:18;;;;;;;13.18;12.07;;;20.80;99.90;;;-141.84;61.47;21358.75;5030721;28;20221;-63
2022/08/15 04:25:09;;;;;;;13.65;12.23;;;20.80;99.90;;;-141.84;61.15;21348.56;5030439;28;20305;-65
2022/08/15 04:27:49;;;;;;;13.00;11.70;;;20.80;99.90;;;-141.84;61.10;21358.75;5030665;28;20216;-62
2022/08/15 04:30:23;;;;;;;12.68;11.25;;;20.80;99.90;;;-141.84;61.05;21381.09;5030583;28;20193;-63
2022/08/15 04:32:53;;;;;;;14.30;12.90;;;20.90;99.90;;;-141.84;61.03;21377.03;5030411;28;20309;-64
2022/08/15 04:35:41;;;;;;;14.65;11.88;;;20.90;99.90;;;-141.84;60.36;21427.88;5029707;28;20690;-63
2022/08/15 04:38:10;;;;;;;12.25;11.15;;;21.00;99.90;;;-141.84;60.67;21397.38;5030355;28;20218;-64
2022/08/15 04:40:39;;;;;;;12.20;11.00;;;21.10;99.90;;;-141.84;60.21;21403.47;5030200;28;20650;-65
2022/08/15 04:43:27;;;;;;;12.45;11.23;;;21.10;99.90;;;-141.84;59.74;21472.59;5030371;28;20241;-64
2022/08/15 04:45:55;;;;;;;12.27;11.07;;;21.20;99.90;;;-141.84;59.42;21466.50;5030384;28;20284;-65
2022/08/15 04:48:25;;;;;;;12.43;11.25;;;21.30;99.90;;;-141.84;59.01;21480.72;5030606;28;20665;-63
2022/08/15 04:50:58;;;;;;;11.48;10.38;;;21.40;99.90;;;-141.84;58.93;21482.75;5031911;28;20230;-65
2022/08/15 04:53:33;;;;;;;12.35;11.20;;;21.50;99.90;;;-141.84;58.37;21547.81;5035121;28;20568;-64
2022/08/15 04:56:06;;;;;;;12.73;11.52;;;21.50;99.90;;;-141.84;58.62;21525.47;5034792;28;20229;-65
2022/08/15 04:58:54;;;;;;;12.45;11.35;;;21.60;99.90;;;-141.84;57.83;21547.81;5034708;28;20230;-63
2022/08/15 05:01:33;;;;;;;12.38;11.18;;;21.60;99.90;;;-141.84;58.17;21527.50;5035067;28;20232;-65
2022/08/15 05:04:21;;;;;;;12.82;11.73;;;21.60;99.90;;;-141.84;58.07;21531.56;5034767;28;20238;-63
2022/08/15 05:06:54;;;;;;;12.30;11.07;;;21.70;99.90;;;-141.84;57.80;21553.94;5034786;28;20236;-65
2022/08/15 05:09:22;;;;;;;13.48;12.20;;;21.70;99.90;;;-141.84;56.69;21614.94;5035299;28;20317;-63
2022/08/15 05:11:51;;;;;;;12.23;11.05;;;21.80;99.90;;;-141.84;57.42;21582.38;5034660;28;20225;-63
2022/08/15 05:14:36;;;;;;;12.35;11.25;;;21.90;99.90;;;-141.84;57.34;21604.75;5034439;28;20261;-64
2022/08/15 05:17:17;;;;;;;12.43;11.20;;;21.90;99.90;;;-141.84;57.26;21586.47;5034704;28;20589;-64
2022/08/15 05:19:50;;;;;;;12.80;11.70;;;22.00;99.90;;;-141.84;56.90;21635.25;5033994;28;20313;-63
2022/08/15 05:22:21;;;;;;;11.50;10.48;;;22.10;99.90;;;-141.84;56.93;21663.72;5034423;28;20305;-63
2022/08/15 05:25:09;;;;;;;13.02;11.32;;;22.20;99.90;;;-141.84;56.06;21641.34;5034294;28;20226;-64
2022/08/15 05:27:38;;;;;;;13.07;11.88;;;22.20;99.90;;;-141.84;55.73;21694.22;5035033;28;20194;-63
2022/08/15 05:30:13;;;;;;;13.90;12.48;;;22.30;99.90;;;-141.84;55.54;21698.28;5034506;28;20685;-64
2022/08/15 05:32:45;;;;;;;12.45;11.15;;;22.40;99.90;;;-141.84;55.24;21785.72;5034293;28;20241;-63
2022/08/15 05:35:16;;;;;;;12.25;11.05;;;22.60;99.90;;;-141.84;54.73;21797.94;5034132;28;20233;-64
2022/08/15 05:37:46;;;;;;;12.93;11.70;;;22.80;99.90;;;-141.84;53.96;21848.75;5034136;28;20329;-64
2022/08/15 05:40:18;;;;;;;12.63;11.52;;;23.00;99.90;;;-141.84;53.27;21907.72;5034231;28;20249;-64
2022/08/15 05:43:04;;;;;;;11.88;10.88;;;23.20;99.90;;;-141.84;52.41;21958.56;5034150;28;20642;-66
2022/08/15 05:45:39;;;;;;;12.60;11.40;;;23.30;99.90;;;-141.84;52.32;21972.81;5034586;28;20190;-64
2022/08/15 05:48:24;;;;;;;12.13;11.02;;;23.50;99.90;;;-141.84;52.20;21980.94;5033934;28;20221;-65
2022/08/15 05:51:14;;;;;;;12.48;11.25;;;23.60;99.90;;;-141.84;52.08;21944.34;5033754;28;20249;-64
2022/08/15 05:54:11;;;;;;;11.45;10.55;;;23.50;99.90;;;-141.84;52.99;21926.03;5033967;28;20229;-63
2022/08/15 05:56:55;;;;;;;12.50;11.25;;;23.50;99.90;;;-141.84;52.53;21950.44;5033585;28;20245;-63
2022/08/15 05:59:34;;;;;;;11.30;10.27;;;23.50;99.90;;;-141.84;52.54;21909.75;5033885;28;20233;-64
2022/08/15 06:02:11;;;;;;;11.93;10.90;;;23.50;99.90;;;-141.84;52.53;21913.84;5033241;28;20304;-63
2022/08/15 06:05:10;;;;;;;11.10;10.00;;;23.50;99.90;;;-141.84;53.09;21940.25;5033413;28;20230;-65
2022/08/15 06:07:42;;;;;;;11.70;10.50;;;23.40;99.90;;;-141.84;53.42;21913.84;5033467;28;20232;-63
2022/08/15 16:49:50;;;;;;;10.32;7.63;;;22.70;99.90;;;-141.84;70.81;21525.47;4878060;29;20221;-47
2022/08/15 16:52:31;;;;;;;8.68;7.78;;;22.70;99.90;;;-141.84;70.01;21547.81;4880721;29;20238;-46
2022/08/15 16:55:21;;;;;;;8.00;7.30;;;22.80;99.90;;;-141.84;69.80;21490.91;4880656;29;20207;-47
2022/08/15 16:58:17;;;;;;;8.75;7.85;;;22.80;99.90;;;-141.84;68.92;21564.09;4880716;29;20207;-53
2022/08/15 17:01:20;;;;;;;8.95;7.68;;;22.80;99.90;;;-141.84;67.56;21588.50;4880743;29;20227;-50
2022/08/15 17:04:16;;;;;;;8.70;7.97;;;22.80;99.90;;;-141.84;66.23;21635.25;4880644;29;20188;-55
2022/08/15 17:07:02;;;;;;;8.32;7.47;;;22.90;99.90;;;-141.84;68.52;21594.59;4880506;29;20195;-51
2022/08/15 17:09:42;;;;;;;7.80;7.15;;;22.80;99.90;;;-141.84;69.60;21529.53;4880976;29;20287;-52
2022/08/15 17:12:37;;;;;;;8.45;7.57;;;22.80;99.90;;;-141.84;67.29;21558.00;4880751;29;20223;-53
2022/08/15 17:15:33;;;;;;;7.45;6.70;;;22.80;99.90;;;-141.84;69.33;21555.97;4880778;29;20211;-53
2022/08/15 17:18:25;;;;;;;7.82;7.18;;;22.80;99.90;;;-141.84;70.30;21501.06;4880435;29;20227;-54
2022/08/15 17:21:04;;;;;;;9.27;8.38;;;22.70;99.90;;;-141.84;70.52;21509.19;4880247;29;20243;-49
2022/08/15 17:23:41;;;;;;;8.45;7.75;;;22.70;99.90;;;-141.84;70.63;21466.50;4880338;29;20246;-48
2022/08/15 17:26:23;;;;;;;8.77;8.02;;;22.60;99.90;;;-141.84;71.77;21472.59;4880295;29;20235;-54
2022/08/15 17:29:21;;;;;;;8.30;7.55;;;22.50;99.90;;;-141.84;71.97;21444.13;4880231;29;20249;-50
2022/08/15 17:31:58;;;;;;;9.77;7.82;;;22.30;99.90;;;-141.84;70.70;21452.25;4880037;29;20235;-48
2022/08/15 17:34:44;;;;;;;7.93;7.13;;;22.30;99.90;;;-141.84;71.27;21366.88;4880117;29;20247;-50
2022/08/15 17:37:13;;;;;;;8.05;7.35;;;22.20;99.90;;;-141.84;71.49;21372.97;4879984;29;20706;-48
2022/08/15 17:39:57;;;;;;;9.48;8.57;;;22.20;99.90;;;-141.84;70.55;21429.91;4880222;29;20295;-50
2022/08/15 17:42:34;;;;;;;8.80;8.00;;;22.10;99.90;;;-141.84;70.62;21409.56;4880594;29;20662;-51
2022/08/15 17:45:09;;;;;;;9.43;8.52;;;22.10;99.90;;;-141.84;70.38;21395.34;4880134;29;20326;-53
2022/08/15 17:48:06;;;;;;;9.57;8.63;;;22.10;99.90;;;-141.84;69.65;21423.81;4879958;29;20235;-53
2022/08/15 17:51:01;;;;;;;8.85;8.05;;;22.20;99.90;;;-141.84;70.32;21423.81;4875680;29;20227;-51
2022/08/15 17:53:48;;;;;;;10.18;8.13;;;22.20;99.90;;;-141.84;71.51;21381.09;4880397;29;20283;-51
2022/08/15 17:56:28;;;;;;;9.15;8.35;;;22.10;99.90;;;-141.84;72.66;21364.84;4880835;29;20274;-50
2022/08/15 17:59:04;;;;;;;10.43;9.43;;;22.10;99.90;;;-141.84;71.89;21383.13;4875603;29;20313;-49
2022/08/15 18:01:38;;;;;;;10.57;9.50;;;22.10;99.90;;;-141.84;72.94;21364.84;4861600;29;20228;-49
2022/08/15 18:04:08;;;;;;;12.13;10.95;;;22.10;99.90;;;-141.84;73.99;21330.28;4861834;29;20311;-48
2022/08/15 18:06:39;;;;;;;11.20;10.13;;;22.00;99.90;;;-141.84;74.06;21340.44;4861972;29;20189;-50
2022/08/15 18:09:14;;;;;;;12.38;10.95;;;22.00;99.90;;;-141.84;74.95;21275.38;4862215;29;20220;-52
2022/08/15 18:12:06;;;;;;;11.77;9.90;;;21.90;99.90;;;-141.84;75.44;21285.53;4861669;29;20262;-47
2022/08/15 18:14:46;;;;;;;10.43;9.38;;;21.90;99.90;;;-141.84;75.91;21273.34;4861534;29;20719;-49
2022/08/15 18:17:23;;;;;;;12.23;10.52;;;21.90;99.90;;;-141.84;76.36;21281.47;4861405;29;20319;-47
2022/08/15 18:20:09;;;;;;;11.18;10.15;;;21.80;99.90;;;-141.84;76.17;21236.75;4861381;29;20227;-48
2022/08/15 18:23:05;;;;;;;11.82;10.32;;;21.80;99.90;;;-141.84;76.03;21303.84;4861343;29;20570;-51
2022/08/15 18:25:35;;;;;;;10.45;9.45;;;21.80;99.90;;;-141.84;77.07;21232.69;4860929;29;20224;-51
2022/08/15 18:28:21;;;;;;;12.90;11.43;;;21.70;99.90;;;-141.84;77.35;21220.47;4860276;29;20309;-52
2022/08/15 18:31:13;;;;;;;11.35;10.23;;;21.70;99.90;;;-141.84;77.25;21240.81;4860793;29;20647;-50
2022/08/15 18:33:45;;;;;;;12.07;10.70;;;21.70;99.90;;;-141.84;77.30;21234.72;4860682;29;20192;-46
2022/08/15 18:36:39;;;;;;;11.93;10.73;;;21.60;99.90;;;-141.84;78.20;21198.13;4860769;29;20227;-51
2022/08/15 18:41:56;;;;;;;11.82;10.73;;;21.60;99.90;;;-141.84;77.64;21200.16;4860086;29;20252;-52
2022/08/15 18:44:35;;;;;;;12.23;10.93;;;21.50;99.90;;;-141.84;78.73;21171.69;4860287;29;20235;-51
2022/08/15 18:47:10;;;;;;;11.27;10.18;;;21.40;99.90;;;-141.84;79.73;21135.09;4860169;29;20287;-50
2022/08/15 18:49:41;;;;;;;12.75;11.30;;;21.40;99.90;;;-141.84;80.09;21163.56;4860106;29;20231;-52
2022/08/15 18:52:35;;;;;;;14.55;11.68;;;21.30;99.90;;;-141.84;80.96;21110.69;4860279;29;20477;-49
2022/08/15 18:55:19;;;;;;;13.05;11.57;;;21.20;99.90;;;-141.84;81.20;21126.97;4860333;29;20243;-50
2022/08/15 18:57:52;;;;;;;11.98;10.77;;;21.20;99.90;;;-141.84;81.36;21118.84;4859869;29;20261;-52
2022/08/15 19:00:27;;;;;;;12.57;11.48;;;21.10;99.90;;;-141.84;82.14;21031.41;4860441;29;20644;-45
2022/08/15 19:03:03;;;;;;;11.90;10.70;;;21.00;99.90;;;-141.84;82.78;21057.84;4860069;29;20239;-47
2022/08/15 19:05:35;;;;;;;11.70;10.60;;;20.90;99.90;;;-141.84;83.52;21037.50;4860020;29;20232;-52
2022/08/15 19:08:21;;;;;;;12.05;10.95;;;20.80;99.90;;;-141.84;82.92;21023.28;4859773;29;20259;-54
2022/08/15 19:11:10;;;;;;;11.82;10.65;;;20.90;99.90;;;-141.84;81.84;21007.00;4859802;29;20727;-52
2022/08/15 19:14:21;;;;;;;11.52;10.43;;;20.80;99.90;;;-141.84;81.83;20954.16;4859584;29;20236;-50
2022/08/15 19:17:08;;;;;;;12.65;11.35;;;20.80;99.90;;;-141.84;82.13;21000.91;4859869;29;20228;-55
2022/08/15 19:19:52;;;;;;;11.57;10.57;;;20.70;99.90;;;-141.84;82.05;20970.41;4859582;29;20292;-52
2022/08/15 19:22:21;;;;;;;13.15;11.95;;;20.60;99.90;;;-141.84;82.66;20956.19;4859645;29;20235;-54
2022/08/15 19:24:59;;;;;;;12.70;11.45;;;20.60;99.90;;;-141.84;82.12;20998.88;4859607;29;20196;-46
2022/08/15 19:27:43;;;;;;;13.15;11.95;;;20.60;99.90;;;-141.84;82.33;20960.25;4860574;29;20197;-54
2022/08/15 19:30:17;;;;;;;12.68;11.48;;;20.60;99.90;;;-141.84;83.11;20809.81;4859643;29;20243;-47
2022/08/15 19:33:13;;;;;;;12.68;11.57;;;20.50;99.90;;;-141.84;84.12;20826.09;4859253;29;20239;-49
2022/08/15 19:36:03;;;;;;;12.00;10.90;;;20.50;99.90;;;-141.84;83.34;20811.84;4859290;29;20731;-46
2022/08/15 19:38:48;;;;;;;11.85;10.75;;;20.50;99.90;;;-141.84;82.49;20852.50;4859016;29;20244;-47
2022/08/15 19:41:35;;;;;;;12.30;11.10;;;20.40;99.90;;;-141.84;83.38;20817.94;4859344;29;20315;-49
2022/08/15 19:44:29;;;;;;;12.32;10.95;;;20.40;99.90;;;-141.84;83.16;20793.56;4859374;29;20232;-56
2022/08/15 19:47:15;;;;;;;11.63;10.43;;;20.50;99.90;;;-141.84;83.81;20840.31;4859368;29;20314;-48
2022/08/15 19:53:21;;;;;;;12.32;11.18;;;20.50;99.90;;;-141.84;83.12;20858.59;4859003;29;20243;-51
2022/08/15 19:56:24;;;;;;;12.30;11.20;;;20.60;99.90;;;-141.84;82.21;20903.34;4859315;29;20235;-49
2022/08/15 19:59:12;;;;;;;11.82;10.73;;;20.60;99.90;;;-141.84;81.37;20913.50;4868459;29;20215;-52
2022/08/15 20:01:53;;;;;;;12.40;11.30;;;20.70;99.90;;;-141.84;81.17;20897.25;4876748;29;20325;-53
2022/08/15 20:04:43;;;;;;;12.82;11.52;;;20.80;99.90;;;-141.84;81.30;20891.13;4877440;29;20235;-50
2022/08/15 20:07:29;;;;;;;12.70;11.48;;;20.80;99.90;;;-141.84;81.36;20948.06;4877432;29;20268;-52
2022/08/15 20:10:23;;;;;;;12.65;11.45;;;20.80;99.90;;;-141.84;81.27;20911.47;4877384;29;20314;-54
2022/08/15 20:13:07;;;;;;;12.68;11.55;;;20.80;99.90;;;-141.84;81.34;20927.72;4877594;29;20263;-50
2022/08/15 20:15:58;;;;;;;12.15;10.95;;;20.70;99.90;;;-141.84;82.05;20848.44;4877500;29;20299;-52
2022/08/15 20:18:45;;;;;;;12.65;11.45;;;20.70;99.90;;;-141.84;82.85;20793.56;4877261;29;20310;-53
2022/08/15 20:21:24;;;;;;;14.50;12.80;;;20.60;99.90;;;-141.84;83.20;20840.31;4877100;29;20890;-49
2022/08/15 20:24:16;;;;;;;14.20;11.93;;;20.60;99.90;;;-141.84;83.41;20767.13;4877404;29;20716;-51
2022/08/15 20:26:53;;;;;;;14.30;12.52;;;20.50;99.90;;;-141.84;83.74;20785.44;4878298;29;20192;-48
2022/08/15 20:29:29;;;;;;;13.85;12.55;;;20.50;99.90;;;-141.84;84.08;20732.56;4877531;29;20231;-48
2022/08/15 20:32:11;;;;;;;15.07;13.40;;;20.50;99.90;;;-141.84;83.50;20801.69;4877352;29;20241;-48
2022/08/15 20:35:04;;;;;;;14.20;12.82;;;20.40;99.90;;;-141.84;83.77;20761.03;4877183;29;20250;-52
2022/08/15 20:37:58;;;;;;;13.48;12.27;;;20.40;99.90;;;-141.84;83.77;20730.53;4876925;29;20726;-56
2022/08/15 20:40:36;;;;;;;14.38;12.48;;;20.40;99.90;;;-141.84;83.96;20695.97;4877333;29;20657;-53
2022/08/15 20:43:16;;;;;;;13.60;12.20;;;20.40;99.90;;;-141.84;84.72;20726.47;4877405;29;20231;-51
2022/08/15 20:45:53;;;;;;;13.88;12.57;;;20.40;99.90;;;-141.84;84.77;20752.91;4877209;29;20323;-54
2022/08/15 20:48:28;;;;;;;14.02;12.63;;;20.40;99.90;;;-141.84;84.12;20765.09;4876993;29;20746;-50
2022/08/15 20:51:23;;;;;;;14.10;12.80;;;20.50;99.90;;;-141.84;82.33;20809.81;4877568;29;20629;-53
2022/08/15 20:53:54;;;;;;;14.02;12.63;;;20.60;99.90;;;-141.84;82.54;20785.44;4877348;29;20679;-53
2022/08/15 20:56:26;;;;;;;12.98;11.68;;;20.70;99.90;;;-141.84;83.51;20740.69;4877073;29;20231;-52
2022/08/15 20:59:13;;;;;;;13.25;11.93;;;20.70;99.90;;;-141.84;82.58;20797.63;4877142;29;20231;-45
2022/08/15 21:01:44;;;;;;;13.93;12.57;;;20.70;99.90;;;-141.84;82.05;20773.22;4876884;29;20777;-52
2022/08/15 21:04:32;;;;;;;14.40;12.98;;;20.80;99.90;;;-141.84;81.81;20854.53;4877125;29;20223;-52
2022/08/15 21:07:04;;;;;;;13.95;12.55;;;20.80;99.90;;;-141.84;81.27;20789.50;4877148;29;20239;-51
2022/08/15 21:10:01;;;;;;;13.27;11.98;;;20.80;99.90;;;-141.84;82.08;20826.09;4877118;29;20222;-53
2022/08/15 21:12:51;;;;;;;13.63;12.23;;;20.80;99.90;;;-141.84;82.51;20789.50;4876968;29;20363;-52
2022/08/15 21:15:38;;;;;;;12.75;11.65;;;20.80;99.90;;;-141.84;82.39;20830.16;4877143;29;20656;-48
2022/08/15 21:18:39;;;;;;;14.23;12.77;;;20.80;99.90;;;-141.84;82.27;20791.53;4876884;29;20223;-47
2022/08/15 21:21:23;;;;;;;13.70;12.35;;;20.80;99.90;;;-141.84;81.61;20813.88;4876829;29;20819;-45
2022/08/15 21:24:16;;;;;;;14.15;12.80;;;20.80;99.90;;;-141.84;81.42;20846.41;4877230;29;20192;-51
2022/08/15 21:26:48;;;;;;;15.18;12.27;;;20.90;99.90;;;-141.84;82.09;20817.94;4877178;29;20227;-51
2022/08/15 21:29:33;;;;;;;14.02;11.90;;;20.80;99.90;;;-141.84;82.25;20744.78;4876914;29;20227;-49
2022/08/15 21:32:33;;;;;;;12.68;11.48;;;20.80;99.90;;;-141.84;82.54;20775.25;4876788;29;20238;-50
2022/08/15 21:35:32;;;;;;;15.05;11.90;;;20.80;99.90;;;-141.84;83.36;20728.50;4879434;29;20687;-51